sensor_id;sensor_type;location;lat;lon;timestamp;P1;durP1;ratioP1;P2;durP2;ratioP2
6185;SDS011;3126;52.738;8.316;2023-03-01T00:01:21;15.15;;;6.68;;
6185;SDS011;3126;52.738;8.316;2023-03-01T00:06:22;10.70;;;5.75;;
6185;SDS011;3126;52.738;8.316;2023-03-01T00:11:24;11.23;;;5.93;;
6185;SDS011;3126;52.738;8.316;2023-03-01T00:16:27;8.27;;;5.75;;
6185;SDS011;3126;52.738;8.316;2023-03-01T00:21:28;9.93;;;5.30;;
6185;SDS011;3126;52.738;8.316;2023-03-01T00:26:29;7.40;;;5.40;;
6185;SDS011;3126;52.738;8.316;2023-03-01T00:31:31;7.80;;;5.50;;
6185;SDS011;3126;52.738;8.316;2023-03-01T00:36:34;11.25;;;6.72;;
6185;SDS011;3126;52.738;8.316;2023-03-01T00:41:35;8.90;;;5.78;;
6185;SDS011;3126;52.738;8.316;2023-03-01T00:46:36;7.07;;;5.55;;
6185;SDS011;3126;52.738;8.316;2023-03-01T00:51:37;8.43;;;5.65;;
6185;SDS011;3126;52.738;8.316;2023-03-01T00:56:41;8.70;;;5.97;;
6185;SDS011;3126;52.738;8.316;2023-03-01T01:01:42;10.23;;;6.20;;
6185;SDS011;3126;52.738;8.316;2023-03-01T01:06:44;12.68;;;6.35;;
6185;SDS011;3126;52.738;8.316;2023-03-01T01:11:49;9.77;;;6.00;;
6185;SDS011;3126;52.738;8.316;2023-03-01T01:16:51;12.05;;;5.85;;
6185;SDS011;3126;52.738;8.316;2023-03-01T01:21:52;13.50;;;6.35;;
6185;SDS011;3126;52.738;8.316;2023-03-01T01:26:53;10.30;;;6.38;;
6185;SDS011;3126;52.738;8.316;2023-03-01T01:31:54;11.40;;;6.20;;
6185;SDS011;3126;52.738;8.316;2023-03-01T01:36:55;8.68;;;6.63;;
6185;SDS011;3126;52.738;8.316;2023-03-01T01:41:56;10.57;;;5.38;;
6185;SDS011;3126;52.738;8.316;2023-03-01T01:47:06;9.95;;;6.20;;
6185;SDS011;3126;52.738;8.316;2023-03-01T01:52:13;13.23;;;6.00;;
6185;SDS011;3126;52.738;8.316;2023-03-01T01:57:16;11.13;;;6.38;;
6185;SDS011;3126;52.738;8.316;2023-03-01T02:02:18;9.73;;;6.85;;
6185;SDS011;3126;52.738;8.316;2023-03-01T02:07:20;14.77;;;7.57;;
6185;SDS011;3126;52.738;8.316;2023-03-01T02:12:23;9.10;;;5.43;;
6185;SDS011;3126;52.738;8.316;2023-03-01T02:17:24;9.18;;;5.85;;
6185;SDS011;3126;52.738;8.316;2023-03-01T02:22:27;11.32;;;6.45;;
6185;SDS011;3126;52.738;8.316;2023-03-01T02:27:53;17.33;;;5.95;;
6185;SDS011;3126;52.738;8.316;2023-03-01T02:32:51;7.93;;;5.40;;
6185;SDS011;3126;52.738;8.316;2023-03-01T02:37:53;8.45;;;5.82;;
6185;SDS011;3126;52.738;8.316;2023-03-01T02:42:57;11.40;;;6.05;;
6185;SDS011;3126;52.738;8.316;2023-03-01T02:47:58;8.85;;;5.93;;
6185;SDS011;3126;52.738;8.316;2023-03-01T02:58:03;8.90;;;5.65;;
6185;SDS011;3126;52.738;8.316;2023-03-01T03:03:05;7.22;;;5.50;;
6185;SDS011;3126;52.738;8.316;2023-03-01T03:08:06;9.70;;;7.22;;
6185;SDS011;3126;52.738;8.316;2023-03-01T03:13:08;8.23;;;5.85;;
6185;SDS011;3126;52.738;8.316;2023-03-01T03:18:11;7.07;;;5.45;;
6185;SDS011;3126;52.738;8.316;2023-03-01T03:23:12;11.50;;;5.82;;
6185;SDS011;3126;52.738;8.316;2023-03-01T03:28:13;7.55;;;5.75;;
6185;SDS011;3126;52.738;8.316;2023-03-01T03:33:15;9.00;;;6.03;;
6185;SDS011;3126;52.738;8.316;2023-03-01T03:38:18;9.05;;;6.00;;
6185;SDS011;3126;52.738;8.316;2023-03-01T03:43:22;9.25;;;5.65;;
6185;SDS011;3126;52.738;8.316;2023-03-01T03:48:23;11.75;;;5.57;;
6185;SDS011;3126;52.738;8.316;2023-03-01T03:53:25;8.55;;;6.13;;
6185;SDS011;3126;52.738;8.316;2023-03-01T03:58:26;7.05;;;5.50;;
6185;SDS011;3126;52.738;8.316;2023-03-01T04:03:28;9.82;;;5.82;;
6185;SDS011;3126;52.738;8.316;2023-03-01T04:08:29;11.60;;;6.20;;
6185;SDS011;3126;52.738;8.316;2023-03-01T04:13:30;7.32;;;5.70;;
6185;SDS011;3126;52.738;8.316;2023-03-01T04:18:31;9.50;;;5.78;;
6185;SDS011;3126;52.738;8.316;2023-03-01T04:23:32;14.18;;;6.65;;
6185;SDS011;3126;52.738;8.316;2023-03-01T04:28:34;11.73;;;6.30;;
6185;SDS011;3126;52.738;8.316;2023-03-01T04:33:36;8.60;;;6.13;;
6185;SDS011;3126;52.738;8.316;2023-03-01T04:38:37;8.60;;;5.97;;
6185;SDS011;3126;52.738;8.316;2023-03-01T04:43:38;7.68;;;5.55;;
6185;SDS011;3126;52.738;8.316;2023-03-01T04:48:40;9.15;;;6.32;;
6185;SDS011;3126;52.738;8.316;2023-03-01T04:53:41;8.50;;;5.45;;
6185;SDS011;3126;52.738;8.316;2023-03-01T04:58:43;10.75;;;5.22;;
6185;SDS011;3126;52.738;8.316;2023-03-01T05:03:44;8.20;;;5.40;;
6185;SDS011;3126;52.738;8.316;2023-03-01T05:08:46;8.10;;;5.97;;
6185;SDS011;3126;52.738;8.316;2023-03-01T05:13:47;10.93;;;5.65;;
6185;SDS011;3126;52.738;8.316;2023-03-01T05:18:49;9.32;;;5.50;;
6185;SDS011;3126;52.738;8.316;2023-03-01T05:23:50;8.10;;;5.30;;
6185;SDS011;3126;52.738;8.316;2023-03-01T05:28:51;8.95;;;5.72;;
6185;SDS011;3126;52.738;8.316;2023-03-01T05:33:56;10.85;;;5.57;;
6185;SDS011;3126;52.738;8.316;2023-03-01T05:38:57;8.77;;;5.63;;
6185;SDS011;3126;52.738;8.316;2023-03-01T05:43:58;8.68;;;5.70;;
6185;SDS011;3126;52.738;8.316;2023-03-01T05:48:59;6.88;;;5.20;;
6185;SDS011;3126;52.738;8.316;2023-03-01T05:54:00;9.57;;;5.47;;
6185;SDS011;3126;52.738;8.316;2023-03-01T05:59:02;7.47;;;5.55;;
6185;SDS011;3126;52.738;8.316;2023-03-01T06:04:03;8.00;;;5.47;;
6185;SDS011;3126;52.738;8.316;2023-03-01T06:09:05;9.43;;;5.43;;
6185;SDS011;3126;52.738;8.316;2023-03-01T06:14:07;9.98;;;5.35;;
6185;SDS011;3126;52.738;8.316;2023-03-01T06:19:08;6.65;;;4.60;;
6185;SDS011;3126;52.738;8.316;2023-03-01T06:24:09;8.77;;;5.00;;
6185;SDS011;3126;52.738;8.316;2023-03-01T06:29:10;9.45;;;5.35;;
6185;SDS011;3126;52.738;8.316;2023-03-01T06:34:11;9.88;;;5.40;;
6185;SDS011;3126;52.738;8.316;2023-03-01T06:39:13;10.50;;;5.57;;
6185;SDS011;3126;52.738;8.316;2023-03-01T06:44:14;8.90;;;5.82;;
6185;SDS011;3126;52.738;8.316;2023-03-01T06:49:15;7.22;;;5.43;;
6185;SDS011;3126;52.738;8.316;2023-03-01T06:54:17;10.40;;;5.90;;
6185;SDS011;3126;52.738;8.316;2023-03-01T06:59:19;13.35;;;6.57;;
6185;SDS011;3126;52.738;8.316;2023-03-01T07:04:20;14.63;;;6.03;;
6185;SDS011;3126;52.738;8.316;2023-03-01T07:09:23;14.55;;;6.43;;
6185;SDS011;3126;52.738;8.316;2023-03-01T07:14:25;10.85;;;5.88;;
6185;SDS011;3126;52.738;8.316;2023-03-01T07:19:26;8.63;;;6.28;;
6185;SDS011;3126;52.738;8.316;2023-03-01T07:24:27;8.65;;;6.43;;
6185;SDS011;3126;52.738;8.316;2023-03-01T07:29:28;9.32;;;5.97;;
6185;SDS011;3126;52.738;8.316;2023-03-01T07:34:29;9.65;;;6.93;;
6185;SDS011;3126;52.738;8.316;2023-03-01T07:39:31;15.88;;;8.43;;
6185;SDS011;3126;52.738;8.316;2023-03-01T07:44:32;14.98;;;7.07;;
6185;SDS011;3126;52.738;8.316;2023-03-01T07:49:34;9.20;;;6.55;;
6185;SDS011;3126;52.738;8.316;2023-03-01T07:54:35;10.93;;;6.20;;
6185;SDS011;3126;52.738;8.316;2023-03-01T07:59:36;9.25;;;6.57;;
6185;SDS011;3126;52.738;8.316;2023-03-01T08:04:37;11.85;;;5.80;;
6185;SDS011;3126;52.738;8.316;2023-03-01T08:09:38;8.60;;;5.43;;
6185;SDS011;3126;52.738;8.316;2023-03-01T08:14:39;7.75;;;5.47;;
6185;SDS011;3126;52.738;8.316;2023-03-01T08:19:40;7.63;;;4.68;;
6185;SDS011;3126;52.738;8.316;2023-03-01T08:24:41;9.23;;;6.10;;
6185;SDS011;3126;52.738;8.316;2023-03-01T08:29:42;9.35;;;8.40;;
6185;SDS011;3126;52.738;8.316;2023-03-01T08:34:45;6.70;;;4.40;;
6185;SDS011;3126;52.738;8.316;2023-03-01T08:39:46;7.00;;;5.10;;
6185;SDS011;3126;52.738;8.316;2023-03-01T08:44:47;7.78;;;4.70;;
6185;SDS011;3126;52.738;8.316;2023-03-01T08:49:49;7.65;;;4.95;;
6185;SDS011;3126;52.738;8.316;2023-03-01T08:54:50;9.40;;;5.80;;
6185;SDS011;3126;52.738;8.316;2023-03-01T08:59:51;7.65;;;5.80;;
6185;SDS011;3126;52.738;8.316;2023-03-01T09:04:52;5.57;;;4.82;;
6185;SDS011;3126;52.738;8.316;2023-03-01T09:09:53;7.07;;;5.10;;
6185;SDS011;3126;52.738;8.316;2023-03-01T09:14:55;10.23;;;4.68;;
6185;SDS011;3126;52.738;8.316;2023-03-01T09:19:56;7.55;;;4.93;;
6185;SDS011;3126;52.738;8.316;2023-03-01T09:24:57;6.13;;;4.65;;
6185;SDS011;3126;52.738;8.316;2023-03-01T09:29:59;6.03;;;5.20;;
6185;SDS011;3126;52.738;8.316;2023-03-01T09:34:59;6.75;;;4.93;;
6185;SDS011;3126;52.738;8.316;2023-03-01T09:40:01;7.28;;;5.07;;
6185;SDS011;3126;52.738;8.316;2023-03-01T09:45:04;6.60;;;4.35;;
6185;SDS011;3126;52.738;8.316;2023-03-01T09:50:13;6.18;;;3.80;;
6185;SDS011;3126;52.738;8.316;2023-03-01T09:55:26;5.40;;;3.30;;
6185;SDS011;3126;52.738;8.316;2023-03-01T10:16:05;4.10;;;2.80;;
6185;SDS011;3126;52.738;8.316;2023-03-01T10:21:14;3.92;;;2.50;;
6185;SDS011;3126;52.738;8.316;2023-03-01T10:26:29;2.60;;;2.38;;
6185;SDS011;3126;52.738;8.316;2023-03-01T10:31:37;3.47;;;2.75;;
6185;SDS011;3126;52.738;8.316;2023-03-01T10:36:39;4.25;;;3.15;;
6185;SDS011;3126;52.738;8.316;2023-03-01T10:46:58;3.15;;;2.85;;
6185;SDS011;3126;52.738;8.316;2023-03-01T10:52:10;4.57;;;2.83;;
6185;SDS011;3126;52.738;8.316;2023-03-01T10:57:24;4.97;;;3.50;;
6185;SDS011;3126;52.738;8.316;2023-03-01T11:02:29;5.40;;;3.38;;
6185;SDS011;3126;52.738;8.316;2023-03-01T11:07:30;4.68;;;3.08;;
6185;SDS011;3126;52.738;8.316;2023-03-01T11:12:31;5.68;;;2.97;;
6185;SDS011;3126;52.738;8.316;2023-03-01T11:17:33;4.95;;;3.28;;
6185;SDS011;3126;52.738;8.316;2023-03-01T11:22:41;3.45;;;3.00;;
6185;SDS011;3126;52.738;8.316;2023-03-01T11:27:45;5.22;;;3.92;;
6185;SDS011;3126;52.738;8.316;2023-03-01T11:38:02;5.78;;;4.28;;
6185;SDS011;3126;52.738;8.316;2023-03-01T11:53:56;4.95;;;4.45;;
6185;SDS011;3126;52.738;8.316;2023-03-01T11:59:10;7.00;;;4.63;;
6185;SDS011;3126;52.738;8.316;2023-03-01T12:50:57;10.35;;;6.82;;
6185;SDS011;3126;52.738;8.316;2023-03-01T12:56:01;8.30;;;6.65;;
6185;SDS011;3126;52.738;8.316;2023-03-01T13:06:24;11.57;;;7.28;;
6185;SDS011;3126;52.738;8.316;2023-03-01T13:11:27;11.30;;;6.70;;
6185;SDS011;3126;52.738;8.316;2023-03-01T13:21:29;10.52;;;7.07;;
6185;SDS011;3126;52.738;8.316;2023-03-01T13:26:31;10.60;;;7.10;;
6185;SDS011;3126;52.738;8.316;2023-03-01T13:31:55;11.65;;;7.53;;
6185;SDS011;3126;52.738;8.316;2023-03-01T13:37:08;10.75;;;7.25;;
6185;SDS011;3126;52.738;8.316;2023-03-01T13:47:29;10.07;;;7.10;;
6185;SDS011;3126;52.738;8.316;2023-03-01T13:57:41;9.48;;;7.30;;
6185;SDS011;3126;52.738;8.316;2023-03-01T14:02:42;7.18;;;5.47;;
6185;SDS011;3126;52.738;8.316;2023-03-01T14:07:43;8.68;;;6.28;;
6185;SDS011;3126;52.738;8.316;2023-03-01T14:13:08;9.25;;;5.40;;
6185;SDS011;3126;52.738;8.316;2023-03-01T14:23:18;8.98;;;5.30;;
6185;SDS011;3126;52.738;8.316;2023-03-01T14:28:20;7.10;;;5.60;;
6185;SDS011;3126;52.738;8.316;2023-03-01T14:33:23;7.78;;;5.32;;
6185;SDS011;3126;52.738;8.316;2023-03-01T14:38:32;8.68;;;5.47;;
6185;SDS011;3126;52.738;8.316;2023-03-01T14:43:35;8.27;;;5.50;;
6185;SDS011;3126;52.738;8.316;2023-03-01T14:48:36;8.07;;;6.03;;
6185;SDS011;3126;52.738;8.316;2023-03-01T14:53:37;8.88;;;6.00;;
6185;SDS011;3126;52.738;8.316;2023-03-01T14:58:38;9.40;;;5.88;;
6185;SDS011;3126;52.738;8.316;2023-03-01T15:03:43;8.35;;;6.10;;
6185;SDS011;3126;52.738;8.316;2023-03-01T15:08:46;8.60;;;5.82;;
6185;SDS011;3126;52.738;8.316;2023-03-01T15:13:48;10.75;;;6.53;;
6185;SDS011;3126;52.738;8.316;2023-03-01T15:18:53;11.90;;;7.00;;
6185;SDS011;3126;52.738;8.316;2023-03-01T15:23:56;7.45;;;5.85;;
6185;SDS011;3126;52.738;8.316;2023-03-01T15:28:58;8.52;;;6.57;;
6185;SDS011;3126;52.738;8.316;2023-03-01T15:34:11;10.75;;;6.90;;
6185;SDS011;3126;52.738;8.316;2023-03-01T15:39:39;14.50;;;6.82;;
6185;SDS011;3126;52.738;8.316;2023-03-01T15:44:43;8.40;;;5.55;;
6185;SDS011;3126;52.738;8.316;2023-03-01T15:49:45;10.27;;;6.20;;
6185;SDS011;3126;52.738;8.316;2023-03-01T15:54:45;9.73;;;5.72;;
6185;SDS011;3126;52.738;8.316;2023-03-01T15:59:46;9.85;;;5.95;;
6185;SDS011;3126;52.738;8.316;2023-03-01T16:04:47;8.77;;;6.10;;
6185;SDS011;3126;52.738;8.316;2023-03-01T16:09:48;8.90;;;6.03;;
6185;SDS011;3126;52.738;8.316;2023-03-01T16:14:49;9.25;;;6.13;;
6185;SDS011;3126;52.738;8.316;2023-03-01T16:19:50;8.00;;;6.43;;
6185;SDS011;3126;52.738;8.316;2023-03-01T16:24:51;9.85;;;6.50;;
6185;SDS011;3126;52.738;8.316;2023-03-01T16:29:52;10.88;;;7.28;;
6185;SDS011;3126;52.738;8.316;2023-03-01T16:34:53;11.32;;;7.15;;
6185;SDS011;3126;52.738;8.316;2023-03-01T16:39:53;12.65;;;9.35;;
6185;SDS011;3126;52.738;8.316;2023-03-01T16:44:55;10.00;;;7.13;;
6185;SDS011;3126;52.738;8.316;2023-03-01T16:49:56;9.27;;;7.00;;
6185;SDS011;3126;52.738;8.316;2023-03-01T16:54:57;10.93;;;7.93;;
6185;SDS011;3126;52.738;8.316;2023-03-01T16:59:57;12.88;;;7.43;;
6185;SDS011;3126;52.738;8.316;2023-03-01T17:04:58;10.60;;;7.50;;
6185;SDS011;3126;52.738;8.316;2023-03-01T17:10:00;11.77;;;7.32;;
6185;SDS011;3126;52.738;8.316;2023-03-01T17:15:01;10.82;;;8.15;;
6185;SDS011;3126;52.738;8.316;2023-03-01T17:20:03;15.98;;;7.78;;
6185;SDS011;3126;52.738;8.316;2023-03-01T17:25:06;12.25;;;8.23;;
6185;SDS011;3126;52.738;8.316;2023-03-01T17:30:11;20.30;;;9.60;;
6185;SDS011;3126;52.738;8.316;2023-03-01T17:35:13;11.45;;;8.48;;
6185;SDS011;3126;52.738;8.316;2023-03-01T17:40:14;14.70;;;8.30;;
6185;SDS011;3126;52.738;8.316;2023-03-01T17:45:14;13.05;;;8.60;;
6185;SDS011;3126;52.738;8.316;2023-03-01T17:50:15;16.08;;;10.43;;
6185;SDS011;3126;52.738;8.316;2023-03-01T17:55:16;16.67;;;11.18;;
6185;SDS011;3126;52.738;8.316;2023-03-01T18:00:16;11.57;;;8.65;;
6185;SDS011;3126;52.738;8.316;2023-03-01T18:05:18;15.80;;;9.15;;
6185;SDS011;3126;52.738;8.316;2023-03-01T18:10:19;17.17;;;10.30;;
6185;SDS011;3126;52.738;8.316;2023-03-01T18:15:20;17.15;;;9.25;;
6185;SDS011;3126;52.738;8.316;2023-03-01T18:20:21;14.02;;;9.15;;
6185;SDS011;3126;52.738;8.316;2023-03-01T18:25:22;14.48;;;8.95;;
6185;SDS011;3126;52.738;8.316;2023-03-01T18:30:23;12.40;;;8.07;;
6185;SDS011;3126;52.738;8.316;2023-03-01T18:35:23;12.75;;;8.25;;
6185;SDS011;3126;52.738;8.316;2023-03-01T18:40:24;14.50;;;9.25;;
6185;SDS011;3126;52.738;8.316;2023-03-01T18:45:25;18.55;;;10.43;;
6185;SDS011;3126;52.738;8.316;2023-03-01T18:50:26;21.90;;;12.82;;
6185;SDS011;3126;52.738;8.316;2023-03-01T18:55:27;20.45;;;11.98;;
6185;SDS011;3126;52.738;8.316;2023-03-01T19:00:28;24.67;;;12.90;;
6185;SDS011;3126;52.738;8.316;2023-03-01T19:05:29;23.08;;;12.00;;
6185;SDS011;3126;52.738;8.316;2023-03-01T19:10:30;26.27;;;13.82;;
6185;SDS011;3126;52.738;8.316;2023-03-01T19:15:31;24.80;;;12.63;;
6185;SDS011;3126;52.738;8.316;2023-03-01T19:20:32;28.42;;;15.13;;
6185;SDS011;3126;52.738;8.316;2023-03-01T19:25:33;26.23;;;15.20;;
6185;SDS011;3126;52.738;8.316;2023-03-01T19:30:34;28.13;;;14.30;;
6185;SDS011;3126;52.738;8.316;2023-03-01T19:35:34;26.33;;;14.63;;
6185;SDS011;3126;52.738;8.316;2023-03-01T19:40:35;28.33;;;14.65;;
6185;SDS011;3126;52.738;8.316;2023-03-01T19:45:36;30.27;;;14.27;;
6185;SDS011;3126;52.738;8.316;2023-03-01T19:50:38;31.17;;;15.40;;
6185;SDS011;3126;52.738;8.316;2023-03-01T19:55:39;34.55;;;15.43;;
6185;SDS011;3126;52.738;8.316;2023-03-01T20:00:43;28.27;;;14.35;;
6185;SDS011;3126;52.738;8.316;2023-03-01T20:05:44;29.38;;;16.20;;
6185;SDS011;3126;52.738;8.316;2023-03-01T20:10:45;31.20;;;16.50;;
6185;SDS011;3126;52.738;8.316;2023-03-01T20:15:46;31.20;;;14.93;;
6185;SDS011;3126;52.738;8.316;2023-03-01T20:20:47;28.05;;;14.32;;
6185;SDS011;3126;52.738;8.316;2023-03-01T20:25:49;31.02;;;13.88;;
6185;SDS011;3126;52.738;8.316;2023-03-01T20:30:49;31.52;;;16.10;;
6185;SDS011;3126;52.738;8.316;2023-03-01T20:35:50;34.75;;;16.58;;
6185;SDS011;3126;52.738;8.316;2023-03-01T20:41:01;32.60;;;18.52;;
6185;SDS011;3126;52.738;8.316;2023-03-01T20:46:03;30.85;;;17.30;;
6185;SDS011;3126;52.738;8.316;2023-03-01T20:51:07;33.72;;;16.83;;
6185;SDS011;3126;52.738;8.316;2023-03-01T21:01:12;32.15;;;17.48;;
6185;SDS011;3126;52.738;8.316;2023-03-01T21:06:15;34.05;;;16.40;;
6185;SDS011;3126;52.738;8.316;2023-03-01T21:11:16;41.33;;;21.00;;
6185;SDS011;3126;52.738;8.316;2023-03-01T21:16:18;35.67;;;19.67;;
6185;SDS011;3126;52.738;8.316;2023-03-01T21:21:20;34.65;;;17.40;;
6185;SDS011;3126;52.738;8.316;2023-03-01T21:26:25;36.22;;;18.23;;
6185;SDS011;3126;52.738;8.316;2023-03-01T21:31:27;35.58;;;17.25;;
6185;SDS011;3126;52.738;8.316;2023-03-01T21:36:33;35.10;;;17.60;;
6185;SDS011;3126;52.738;8.316;2023-03-01T21:41:35;36.60;;;19.08;;
6185;SDS011;3126;52.738;8.316;2023-03-01T21:46:37;36.72;;;18.17;;
6185;SDS011;3126;52.738;8.316;2023-03-01T21:51:38;36.25;;;17.60;;
6185;SDS011;3126;52.738;8.316;2023-03-01T21:56:40;36.92;;;17.85;;
6185;SDS011;3126;52.738;8.316;2023-03-01T22:01:41;36.60;;;18.10;;
6185;SDS011;3126;52.738;8.316;2023-03-01T22:07:01;40.42;;;18.15;;
6185;SDS011;3126;52.738;8.316;2023-03-01T22:12:02;44.90;;;19.48;;
6185;SDS011;3126;52.738;8.316;2023-03-01T22:17:04;44.63;;;19.00;;
6185;SDS011;3126;52.738;8.316;2023-03-01T22:22:05;41.03;;;17.60;;
6185;SDS011;3126;52.738;8.316;2023-03-01T22:27:06;41.40;;;18.80;;
6185;SDS011;3126;52.738;8.316;2023-03-01T22:32:07;49.17;;;19.83;;
6185;SDS011;3126;52.738;8.316;2023-03-01T22:37:09;46.42;;;19.27;;
6185;SDS011;3126;52.738;8.316;2023-03-01T22:42:10;45.50;;;18.75;;
6185;SDS011;3126;52.738;8.316;2023-03-01T22:47:11;53.40;;;20.83;;
6185;SDS011;3126;52.738;8.316;2023-03-01T22:52:12;54.30;;;22.35;;
6185;SDS011;3126;52.738;8.316;2023-03-01T22:57:13;64.85;;;22.30;;
6185;SDS011;3126;52.738;8.316;2023-03-01T23:02:14;57.25;;;21.63;;
6185;SDS011;3126;52.738;8.316;2023-03-01T23:07:15;58.08;;;20.80;;
6185;SDS011;3126;52.738;8.316;2023-03-01T23:12:16;57.00;;;20.77;;
6185;SDS011;3126;52.738;8.316;2023-03-01T23:17:17;49.72;;;22.20;;
6185;SDS011;3126;52.738;8.316;2023-03-01T23:22:18;48.40;;;20.27;;
6185;SDS011;3126;52.738;8.316;2023-03-01T23:27:19;70.65;;;22.13;;
6185;SDS011;3126;52.738;8.316;2023-03-01T23:32:20;50.15;;;21.50;;
6185;SDS011;3126;52.738;8.316;2023-03-01T23:37:21;96.80;;;23.35;;
6185;SDS011;3126;52.738;8.316;2023-03-01T23:42:22;46.80;;;19.42;;
6185;SDS011;3126;52.738;8.316;2023-03-01T23:47:23;46.80;;;20.27;;
6185;SDS011;3126;52.738;8.316;2023-03-01T23:52:24;46.92;;;18.92;;
6185;SDS011;3126;52.738;8.316;2023-03-01T23:57:25;54.78;;;21.02;;
